createdAt,value
2016-04-13T00:00:11.422Z,49
2016-04-13T00:01:12.238Z,49
2016-04-13T00:02:13.147Z,49
2016-04-13T00:03:13.852Z,49
2016-04-13T00:04:14.668Z,49
2016-04-13T00:05:15.749Z,49
2016-04-13T00:06:16.829Z,49
2016-04-13T00:07:17.926Z,49
2016-04-13T00:08:19.058Z,50
2016-04-13T00:09:20.061Z,50
2016-04-13T00:10:21.376Z,50
2016-04-13T00:11:22.850Z,50
2016-04-13T00:12:24.025Z,50
2016-04-13T00:13:25.355Z,50
2016-04-13T00:14:26.702Z,50
2016-04-13T00:15:28.126Z,50
2016-04-13T00:16:29.597Z,50
2016-04-13T00:17:31.163Z,50
2016-04-13T00:18:32.931Z,50
2016-04-13T00:19:33.933Z,51
2016-04-13T00:20:31.609Z,51
2016-04-13T00:21:29.393Z,51
2016-04-13T00:22:27.160Z,51
2016-04-13T00:23:24.961Z,51
2016-04-13T00:24:22.729Z,51
2016-04-13T00:25:20.494Z,51
2016-04-13T00:26:18.403Z,51
2016-04-13T00:27:16.078Z,51
2016-04-13T00:28:13.908Z,51
2016-04-13T00:29:14.911Z,51
2016-04-13T00:30:12.961Z,51
2016-04-13T00:31:10.995Z,51
2016-04-13T00:32:09.138Z,51
2016-04-13T00:33:07.047Z,51
2016-04-13T00:34:05.096Z,51
2016-04-13T00:35:03.115Z,51
2016-04-13T00:36:01.509Z,51
2016-04-13T00:36:59.182Z,51
2016-04-13T00:37:57.279Z,52
2016-04-13T00:38:58.297Z,52
2016-04-13T00:39:56.597Z,52
2016-04-13T00:40:54.882Z,52
2016-04-13T00:41:53.165Z,52
2016-04-13T00:42:51.465Z,52
2016-04-13T00:43:49.748Z,52
2016-04-13T00:44:48.048Z,52
2016-04-13T00:45:46.332Z,52
2016-04-13T00:46:44.601Z,52
2016-04-13T00:47:42.962Z,52
2016-04-13T00:48:43.965Z,52
2016-04-13T00:49:42.531Z,52
2016-04-13T00:50:41.049Z,52
2016-04-13T00:51:39.582Z,53
2016-04-13T00:52:38.475Z,53
2016-04-13T00:53:37.166Z,53
2016-04-13T00:54:35.981Z,53
2016-04-13T00:55:34.858Z,53
2016-04-13T00:56:33.549Z,53
2016-04-13T00:57:32.396Z,53
2016-04-13T00:58:33.445Z,53
2016-04-13T00:59:32.213Z,53
2016-04-13T01:00:31.122Z,53
2016-04-13T01:01:29.812Z,53
2016-04-13T01:02:28.721Z,53
2016-04-13T01:03:27.646Z,53
2016-04-13T01:04:26.679Z,53
2016-04-13T01:05:25.714Z,53
2016-04-13T01:06:24.779Z,53
2016-04-13T01:07:23.923Z,53
2016-04-13T01:08:25.035Z,53
2016-04-13T01:09:23.960Z,54
2016-04-13T01:10:23.290Z,53
2016-04-13T01:11:22.321Z,54
2016-04-13T01:12:21.624Z,54
2016-04-13T01:13:20.941Z,54
2016-04-13T01:14:20.349Z,54
2016-04-13T01:15:19.554Z,54
2016-04-13T01:16:18.838Z,54
2016-04-13T01:17:18.201Z,54
2016-04-13T01:18:19.218Z,54
2016-04-13T01:19:18.518Z,54
2016-04-13T01:20:17.943Z,54
2016-04-13T01:21:16.758Z,54
2016-04-13T01:22:16.547Z,54
2016-04-13T01:23:15.736Z,54
2016-04-13T01:24:15.161Z,54
2016-04-13T01:25:14.336Z,54
2016-04-13T01:26:13.650Z,54
2016-04-13T01:27:13.028Z,54
2016-04-13T01:28:14.031Z,54
2016-04-13T01:29:13.330Z,54
2016-04-13T01:30:12.646Z,54
2016-04-13T01:31:11.946Z,54
2016-04-13T01:32:11.510Z,54
2016-04-13T01:33:11.060Z,54
2016-04-13T01:34:10.735Z,54
2016-04-13T01:35:10.174Z,54
2016-04-13T01:36:09.912Z,54
2016-04-13T01:37:09.336Z,54
2016-04-13T01:38:10.354Z,54
2016-04-13T01:39:09.935Z,54
2016-04-13T01:40:09.485Z,54
2016-04-13T01:41:09.144Z,54
2016-04-13T01:42:08.709Z,54
2016-04-13T01:43:08.259Z,54
2016-04-13T01:44:07.840Z,54
2016-04-13T01:45:07.265Z,55
2016-04-13T01:46:07.064Z,54
2016-04-13T01:47:06.801Z,55
2016-04-13T01:48:07.726Z,55
2016-04-13T01:49:07.525Z,55
2016-04-13T01:50:07.465Z,55
2016-04-13T01:51:07.108Z,55
2016-04-13T01:52:07.080Z,55
2016-04-13T01:53:06.770Z,55
2016-04-13T01:54:06.600Z,55
2016-04-13T01:55:06.442Z,55
2016-04-13T01:56:06.300Z,55
2016-04-13T01:57:06.174Z,55
2016-04-13T01:58:07.237Z,55
2016-04-13T01:59:07.109Z,55
2016-04-13T02:00:06.946Z,55
2016-04-13T02:01:06.760Z,55
2016-04-13T02:02:06.716Z,55
2016-04-13T02:03:06.562Z,55
2016-04-13T02:04:06.235Z,55
2016-04-13T02:05:06.064Z,55
2016-04-13T02:06:05.979Z,55
2016-04-13T02:07:05.752Z,55
2016-04-13T02:08:06.808Z,55
2016-04-13T02:09:06.597Z,55
2016-04-13T02:10:06.415Z,55
2016-04-13T02:11:06.233Z,55
2016-04-13T02:12:06.050Z,55
2016-04-13T02:13:05.976Z,55
2016-04-13T02:14:05.670Z,55
2016-04-13T02:15:05.735Z,55
2016-04-13T02:16:05.802Z,55
2016-04-13T02:17:05.962Z,55
2016-04-13T02:18:06.949Z,55
2016-04-13T02:19:07.046Z,55
2016-04-13T02:20:07.205Z,55
2016-04-13T02:21:07.163Z,55
2016-04-13T02:22:07.212Z,55
2016-04-13T02:23:07.262Z,55
2016-04-13T02:24:07.343Z,55
2016-04-13T02:25:07.393Z,55
2016-04-13T02:26:07.459Z,55
2016-04-13T02:27:07.586Z,55
2016-04-13T02:28:08.604Z,55
2016-04-13T02:29:08.670Z,55
2016-04-13T02:30:08.751Z,55
2016-04-13T02:31:08.801Z,55
2016-04-13T02:32:08.865Z,55
2016-04-13T02:33:08.947Z,55
2016-04-13T02:34:08.981Z,55
2016-04-13T02:35:09.045Z,55
2016-04-13T02:36:09.283Z,55
2016-04-13T02:37:09.504Z,55
2016-04-13T02:38:10.506Z,55
2016-04-13T02:39:10.853Z,55
2016-04-13T02:40:11.184Z,55
2016-04-13T02:41:11.499Z,55
2016-04-13T02:42:11.783Z,55
2016-04-13T02:43:12.208Z,55
2016-04-13T02:44:12.554Z,55
2016-04-13T02:46:13.059Z,55
2016-04-13T02:47:13.563Z,55
2016-04-13T02:48:14.440Z,55
2016-04-13T02:49:14.771Z,55
2016-04-13T02:50:15.117Z,55
2016-04-13T02:51:15.463Z,55
2016-04-13T02:52:15.841Z,55
2016-04-13T02:53:16.031Z,55
2016-04-13T02:54:16.346Z,55
2016-04-13T02:55:16.692Z,55
2016-04-13T02:56:16.992Z,55
2016-04-13T02:57:17.370Z,55
2016-04-13T02:58:18.403Z,55
2016-04-13T02:59:18.703Z,55
2016-04-13T03:00:19.019Z,55
2016-04-13T03:01:19.334Z,55
2016-04-13T03:02:19.650Z,55
2016-04-13T03:03:19.995Z,55
2016-04-13T03:04:20.326Z,55
2016-04-13T03:05:20.626Z,55
2016-04-13T03:06:20.973Z,55
2016-04-13T03:07:21.428Z,55
2016-04-13T03:08:22.322Z,55
2016-04-13T03:09:22.652Z,55
2016-04-13T03:10:23.092Z,55
2016-04-13T03:11:23.314Z,55
2016-04-13T03:12:23.597Z,55
2016-04-13T03:13:23.929Z,55
2016-04-13T03:14:24.243Z,55
2016-04-13T03:15:24.685Z,55
2016-04-13T03:16:24.891Z,55
2016-04-13T03:17:25.268Z,55
2016-04-13T03:18:26.302Z,55
2016-04-13T03:19:26.585Z,56
2016-04-13T03:20:27.201Z,56
2016-04-13T03:21:27.844Z,56
2016-04-13T03:22:28.315Z,56
2016-04-13T03:23:28.879Z,56
2016-04-13T03:24:29.476Z,56
2016-04-13T03:25:30.010Z,56
2016-04-13T03:26:30.606Z,56
2016-04-13T03:27:31.250Z,56
2016-04-13T03:28:32.237Z,56
2016-04-13T03:29:32.803Z,56
2016-04-13T03:30:33.384Z,56
2016-04-13T03:31:33.980Z,56
2016-04-13T03:32:34.514Z,56
2016-04-13T03:33:35.095Z,56
2016-04-13T03:34:35.659Z,56
2016-04-13T03:35:36.241Z,56
2016-04-13T03:36:36.806Z,56
2016-04-13T03:37:37.433Z,56
2016-04-13T03:38:38.499Z,56
2016-04-13T03:39:39.033Z,56
2016-04-13T03:40:39.602Z,56
2016-04-13T03:41:40.183Z,56
2016-04-13T03:42:40.779Z,56
2016-04-13T03:43:41.330Z,56
2016-04-13T03:44:41.894Z,56
2016-04-13T03:45:42.585Z,56
2016-04-13T03:46:43.056Z,56
2016-04-13T03:47:43.684Z,56
2016-04-13T03:48:44.687Z,56
2016-04-13T03:49:45.282Z,56
2016-04-13T03:50:45.864Z,56
2016-04-13T03:51:46.398Z,56
2016-04-13T03:52:46.978Z,56
2016-04-13T03:53:47.590Z,56
2016-04-13T03:54:48.125Z,56
2016-04-13T03:55:48.690Z,56
2016-04-13T03:56:49.395Z,56
2016-04-13T03:57:49.898Z,56
2016-04-13T03:58:51.042Z,56
2016-04-13T03:59:51.482Z,56
2016-04-13T04:00:52.078Z,56
2016-04-13T04:01:52.659Z,56
2016-04-13T04:02:53.489Z,56
2016-04-13T04:03:54.274Z,56
2016-04-13T04:04:55.105Z,56
2016-04-13T04:05:56.075Z,56
2016-04-13T04:06:56.500Z,56
2016-04-13T04:07:57.378Z,56
2016-04-13T04:08:58.522Z,56
2016-04-13T04:09:58.977Z,56
2016-04-13T04:10:59.808Z,56
2016-04-13T04:12:00.624Z,56
2016-04-13T04:13:01.455Z,56
2016-04-13T04:14:02.270Z,56
2016-04-13T04:15:03.100Z,56
2016-04-13T04:16:03.916Z,56
2016-04-13T04:17:04.746Z,56
2016-04-13T04:18:05.749Z,56
2016-04-13T04:19:06.783Z,56
2016-04-13T04:20:07.504Z,56
2016-04-13T04:21:08.429Z,56
2016-04-13T04:22:09.134Z,56
2016-04-13T04:23:09.934Z,56
2016-04-13T04:24:10.765Z,56
2016-04-13T04:25:11.596Z,56
2016-04-13T04:26:12.426Z,56
2016-04-13T04:27:13.257Z,56
2016-04-13T04:28:14.135Z,56
2016-04-13T04:29:15.138Z,56
2016-04-13T04:30:15.969Z,56
2016-04-13T04:31:16.800Z,56
2016-04-13T04:32:17.615Z,56
2016-04-13T04:33:18.556Z,56
2016-04-13T04:34:19.292Z,56
2016-04-13T04:35:20.248Z,56
2016-04-13T04:36:20.922Z,56
2016-04-13T04:37:21.753Z,56
2016-04-13T04:38:22.647Z,56
2016-04-13T04:39:23.586Z,56
2016-04-13T04:40:24.480Z,56
2016-04-13T04:41:25.327Z,56
2016-04-13T04:43:26.958Z,56
2016-04-13T04:44:27.788Z,56
2016-04-13T04:45:28.603Z,56
2016-04-13T04:46:29.574Z,56
2016-04-13T04:47:30.265Z,56
2016-04-13T04:48:31.176Z,56
2016-04-13T04:49:32.163Z,56
2016-04-13T04:50:32.994Z,56
2016-04-13T04:51:33.871Z,56
2016-04-13T04:52:34.624Z,56
2016-04-13T04:53:35.470Z,56
2016-04-13T04:54:36.286Z,56
2016-04-13T04:55:37.210Z,56
2016-04-13T04:56:37.948Z,56
2016-04-13T04:57:38.763Z,56
2016-04-13T04:58:39.798Z,56
2016-04-13T04:59:40.675Z,56
2016-04-13T05:00:41.490Z,56
2016-04-13T05:01:42.305Z,56
2016-04-13T05:02:43.136Z,56
2016-04-13T05:03:43.982Z,56
2016-04-13T05:04:44.781Z,56
2016-04-13T05:05:45.550Z,56
2016-04-13T05:06:46.428Z,56
2016-04-13T05:07:47.383Z,56
2016-04-13T05:08:48.261Z,56
2016-04-13T05:09:49.170Z,56
2016-04-13T05:10:50.111Z,56
2016-04-13T05:11:50.816Z,56
2016-04-13T05:12:51.756Z,56
2016-04-13T05:13:52.462Z,56
2016-04-13T05:14:53.293Z,56
2016-04-13T05:15:54.107Z,56
2016-04-13T05:16:54.954Z,56
2016-04-13T05:17:55.754Z,56
2016-04-13T05:18:56.663Z,56
2016-04-13T05:19:57.666Z,56
2016-04-13T05:20:58.606Z,56
2016-04-13T05:21:59.438Z,56
2016-04-13T05:23:00.142Z,56
2016-04-13T05:24:00.957Z,56
2016-04-13T05:25:01.820Z,56
2016-04-13T05:26:02.338Z,56
2016-04-13T05:27:03.466Z,56
2016-04-13T05:28:04.265Z,56
2016-04-13T05:29:05.143Z,56
2016-04-13T05:30:06.177Z,57
2016-04-13T05:31:07.351Z,57
2016-04-13T05:32:08.323Z,57
2016-04-13T05:33:09.419Z,57
2016-04-13T05:34:10.610Z,57
2016-04-13T05:35:11.565Z,57
2016-04-13T05:36:12.631Z,57
2016-04-13T05:37:13.711Z,57
2016-04-13T05:38:14.823Z,57
2016-04-13T05:39:16.044Z,57
2016-04-13T05:40:17.064Z,57
2016-04-13T05:41:18.035Z,57
2016-04-13T05:42:19.100Z,57
2016-04-13T05:43:20.180Z,57
2016-04-13T05:44:21.261Z,57
2016-04-13T05:45:22.358Z,57
2016-04-13T05:46:23.438Z,57
2016-04-13T05:47:24.504Z,57
2016-04-13T05:48:25.569Z,57
2016-04-13T05:49:26.712Z,57
2016-04-13T05:50:27.777Z,57
2016-04-13T05:51:28.812Z,57
2016-04-13T05:52:29.907Z,57
2016-04-13T05:53:30.988Z,57
2016-04-13T05:54:32.039Z,57
2016-04-13T05:55:33.244Z,57
2016-04-13T05:56:34.312Z,57
2016-04-13T05:57:35.284Z,57
2016-04-13T05:58:36.365Z,57
2016-04-13T05:59:37.601Z,57
2016-04-13T06:00:38.510Z,57
2016-04-13T06:01:39.623Z,57
2016-04-13T06:02:40.687Z,57
2016-04-13T06:03:41.768Z,57
2016-04-13T06:04:42.817Z,57
2016-04-13T06:05:43.915Z,57
2016-04-13T06:06:44.980Z,57
2016-04-13T06:07:46.061Z,57
2016-04-13T06:08:47.142Z,57
2016-04-13T06:09:48.300Z,57
2016-04-13T06:10:49.412Z,57
2016-04-13T06:11:50.494Z,57
2016-04-13T06:12:51.450Z,57
2016-04-13T06:13:52.530Z,57
2016-04-13T06:14:53.610Z,57
2016-04-13T06:15:54.675Z,57
2016-04-13T06:16:55.882Z,57
2016-04-13T06:17:56.837Z,57
2016-04-13T06:18:58.105Z,57
2016-04-13T06:19:59.155Z,57
2016-04-13T06:21:00.721Z,57
2016-04-13T06:22:02.098Z,57
2016-04-13T06:23:03.242Z,57
2016-04-13T06:24:04.572Z,57
2016-04-13T06:25:06.012Z,57
2016-04-13T06:26:07.249Z,57
2016-04-13T06:27:08.580Z,57
2016-04-13T06:28:10.021Z,57
2016-04-13T06:29:10.992Z,57
2016-04-13T06:30:12.245Z,57
2016-04-13T06:31:13.154Z,57
2016-04-13T06:32:14.234Z,57
2016-04-13T06:33:15.331Z,57
2016-04-13T06:34:16.645Z,57
2016-04-13T06:35:17.742Z,57
2016-04-13T06:36:18.792Z,57
2016-04-13T06:37:19.997Z,57
2016-04-13T06:38:20.954Z,57
2016-04-13T06:39:22.034Z,57
2016-04-13T06:40:23.177Z,57
2016-04-13T06:41:24.306Z,57
2016-04-13T06:42:25.370Z,57
2016-04-13T06:43:26.733Z,57
2016-04-13T06:44:27.938Z,57
2016-04-13T06:45:29.269Z,57
2016-04-13T06:46:30.350Z,57
2016-04-13T06:47:31.431Z,57
2016-04-13T06:48:32.511Z,57
2016-04-13T06:49:33.593Z,57
2016-04-13T06:50:34.735Z,57
2016-04-13T06:51:35.788Z,57
2016-04-13T06:52:36.822Z,57
2016-04-13T06:53:37.840Z,57
2016-04-13T06:54:38.984Z,57
2016-04-13T06:55:40.080Z,57
2016-04-13T06:56:41.146Z,57
2016-04-13T06:57:42.226Z,57
2016-04-13T06:58:43.307Z,57
2016-04-13T06:59:44.388Z,57
2016-04-13T07:00:45.546Z,57
2016-04-13T07:01:46.534Z,57
2016-04-13T07:02:47.615Z,57
2016-04-13T07:03:48.695Z,57
2016-04-13T07:04:49.792Z,57
2016-04-13T07:05:50.889Z,57
2016-04-13T07:06:52.031Z,57
2016-04-13T07:07:53.003Z,57
2016-04-13T07:08:54.114Z,57
2016-04-13T07:09:55.164Z,57
2016-04-13T07:10:56.292Z,57
2016-04-13T07:11:57.325Z,57
2016-04-13T07:12:58.422Z,57
2016-04-13T07:13:59.472Z,56
2016-04-13T07:15:00.288Z,56
2016-04-13T07:16:01.259Z,57
2016-04-13T07:17:01.949Z,57
2016-04-13T07:18:02.780Z,57
2016-04-13T07:19:03.595Z,57
2016-04-13T07:20:04.426Z,57
2016-04-13T07:21:05.445Z,57
2016-04-13T07:22:06.353Z,57
2016-04-13T07:23:07.153Z,56
2016-04-13T07:24:07.328Z,56
2016-04-13T07:25:08.299Z,56
2016-04-13T07:26:08.864Z,56
2016-04-13T07:27:09.445Z,56
2016-04-13T07:28:10.010Z,56
2016-04-13T07:29:10.591Z,56
2016-04-13T07:30:11.281Z,56
2016-04-13T07:31:11.752Z,56
2016-04-13T07:32:12.770Z,56
2016-04-13T07:33:13.086Z,56
2016-04-13T07:34:13.401Z,56
2016-04-13T07:35:13.716Z,56
2016-04-13T07:36:14.032Z,56
2016-04-13T07:37:14.362Z,56
2016-04-13T07:38:14.678Z,56
2016-04-13T07:39:14.978Z,56
2016-04-13T07:40:15.323Z,56
2016-04-13T07:41:15.811Z,55
2016-04-13T07:42:16.689Z,55
2016-04-13T07:43:16.769Z,55
2016-04-13T07:44:16.819Z,55
2016-04-13T07:45:17.024Z,55
2016-04-13T07:46:16.949Z,55
2016-04-13T07:47:17.014Z,55
2016-04-13T07:48:17.079Z,55
2016-04-13T07:49:17.191Z,55
2016-04-13T07:50:17.210Z,55
2016-04-13T07:51:17.338Z,55
2016-04-13T07:52:18.341Z,55
2016-04-13T07:53:18.405Z,55
2016-04-13T07:54:18.471Z,55
2016-04-13T07:55:18.551Z,55
2016-04-13T07:56:18.351Z,55
2016-04-13T07:57:18.166Z,55
2016-04-13T07:58:17.981Z,55
2016-04-13T07:59:18.016Z,55
2016-04-13T08:00:18.080Z,55
2016-04-13T08:01:18.208Z,55
2016-04-13T08:02:19.227Z,55
2016-04-13T08:03:19.292Z,55
2016-04-13T08:04:19.513Z,55
2016-04-13T08:05:19.172Z,55
2016-04-13T08:06:19.081Z,55
2016-04-13T08:07:18.787Z,55
2016-04-13T08:08:18.591Z,55
2016-04-13T08:09:18.422Z,55
2016-04-13T08:10:18.221Z,55
2016-04-13T08:11:18.083Z,55
2016-04-13T08:12:19.117Z,55
2016-04-13T08:13:18.901Z,55
2016-04-13T08:14:18.701Z,55
2016-04-13T08:15:18.532Z,55
2016-04-13T08:16:18.331Z,55
2016-04-13T08:17:18.131Z,55
2016-04-13T08:18:17.930Z,55
2016-04-13T08:19:17.871Z,55
2016-04-13T08:20:17.577Z,55
2016-04-13T08:21:17.423Z,55
2016-04-13T08:22:18.504Z,55
2016-04-13T08:23:18.272Z,55
2016-04-13T08:24:18.197Z,55
2016-04-13T08:25:17.997Z,55
2016-04-13T08:26:17.796Z,55
2016-04-13T08:27:17.471Z,55
2016-04-13T08:28:17.301Z,56
2016-04-13T08:29:17.616Z,56
2016-04-13T08:30:18.182Z,56
2016-04-13T08:31:18.809Z,56
2016-04-13T08:32:19.984Z,56
2016-04-13T08:33:20.423Z,56
2016-04-13T08:34:21.083Z,56
2016-04-13T08:35:21.523Z,56
2016-04-13T08:36:21.994Z,56
2016-04-13T08:37:22.295Z,56
2016-04-13T08:38:22.594Z,56
2016-04-13T08:39:22.815Z,55
2016-04-13T08:40:22.849Z,55
2016-04-13T08:41:22.992Z,55
2016-04-13T08:42:24.026Z,55
2016-04-13T08:43:24.044Z,55
2016-04-13T08:44:24.110Z,56
2016-04-13T08:45:24.533Z,56
2016-04-13T08:46:24.740Z,56
2016-04-13T08:47:25.321Z,56
2016-04-13T08:48:25.902Z,56
2016-04-13T08:49:26.452Z,57
2016-04-13T08:50:26.986Z,57
2016-04-13T08:51:28.144Z,57
2016-04-13T08:52:29.178Z,57
2016-04-13T08:53:30.102Z,57
2016-04-13T08:54:31.058Z,58
2016-04-13T08:55:32.374Z,58
2016-04-13T08:56:33.705Z,58
2016-04-13T08:57:35.427Z,58
2016-04-13T08:58:36.866Z,58
2016-04-13T08:59:38.215Z,58
2016-04-13T09:00:39.656Z,58
2016-04-13T09:01:41.174Z,58
2016-04-13T09:02:42.176Z,58
2016-04-13T09:03:43.757Z,58
2016-04-13T09:04:45.353Z,58
2016-04-13T09:05:46.903Z,58
2016-04-13T09:06:48.515Z,58
2016-04-13T09:07:50.065Z,58
2016-04-13T09:08:51.645Z,58
2016-04-13T09:09:53.226Z,58
2016-04-13T09:10:54.933Z,58
2016-04-13T09:11:56.450Z,58
2016-04-13T09:12:57.469Z,58
2016-04-13T09:13:59.050Z,58
2016-04-13T09:15:00.631Z,58
2016-04-13T09:16:02.321Z,58
2016-04-13T09:17:03.917Z,58
2016-04-13T09:18:05.372Z,59
2016-04-13T09:19:03.172Z,59
2016-04-13T09:20:01.050Z,59
2016-04-13T09:20:58.710Z,59
2016-04-13T09:21:56.556Z,59
2016-04-13T09:22:57.590Z,59
2016-04-13T09:23:55.358Z,59
2016-04-13T09:24:53.235Z,59
2016-04-13T09:25:50.941Z,59
2016-04-13T09:26:48.679Z,59
2016-04-13T09:27:46.494Z,59
2016-04-13T09:28:44.247Z,59
2016-04-13T09:29:42.015Z,58
2016-04-13T09:30:43.612Z,58
2016-04-13T09:31:45.254Z,58
2016-04-13T09:32:46.288Z,58
2016-04-13T09:33:47.837Z,58
2016-04-13T09:34:49.481Z,58
2016-04-13T09:35:50.750Z,58
2016-04-13T09:36:52.330Z,58
2016-04-13T09:37:53.927Z,58
2016-04-13T09:38:55.508Z,58
2016-04-13T09:39:57.198Z,58
2016-04-13T09:40:58.778Z,58
2016-04-13T09:42:00.062Z,58
2016-04-13T09:43:01.097Z,57
2016-04-13T09:44:02.130Z,57
2016-04-13T09:45:02.977Z,57
2016-04-13T09:46:03.808Z,57
2016-04-13T09:47:04.607Z,57
2016-04-13T09:48:05.422Z,56
2016-04-13T09:49:06.003Z,56
2016-04-13T09:50:06.553Z,56
2016-04-13T09:51:07.134Z,56
2016-04-13T09:52:07.558Z,56
2016-04-13T09:53:08.546Z,56
2016-04-13T09:54:08.838Z,56
2016-04-13T09:55:09.197Z,56
2016-04-13T09:56:09.454Z,56
2016-04-13T09:57:09.832Z,56
2016-04-13T09:58:10.101Z,56
2016-04-13T09:59:10.432Z,56
2016-04-13T10:00:10.708Z,56
2016-04-13T10:01:11.036Z,56
2016-04-13T10:02:11.586Z,56
2016-04-13T10:03:12.667Z,56
2016-04-13T10:04:13.240Z,56
2016-04-13T10:05:13.835Z,56
2016-04-13T10:06:14.323Z,56
2016-04-13T10:07:15.059Z,56
2016-04-13T10:08:15.515Z,56
2016-04-13T10:09:16.080Z,56
2016-04-13T10:10:16.755Z,56
2016-04-13T10:11:17.351Z,56
2016-04-13T10:12:17.964Z,56
2016-04-13T10:13:20.185Z,57
2016-04-13T10:15:27.050Z,57
2016-04-13T10:17:22.150Z,57
2016-04-13T10:18:23.214Z,57
2016-04-13T10:19:24.280Z,57
2016-04-13T10:20:25.361Z,58
2016-04-13T10:21:26.691Z,58
2016-04-13T10:22:28.131Z,58
2016-04-13T10:24:30.418Z,58
2016-04-13T10:25:31.983Z,58
2016-04-13T10:26:33.580Z,58
2016-04-13T10:27:35.144Z,58
2016-04-13T10:28:36.741Z,59
2016-04-13T10:29:34.525Z,59
2016-04-13T10:30:32.301Z,59
2016-04-13T10:31:30.084Z,59
2016-04-13T10:32:27.947Z,59
2016-04-13T10:33:29.043Z,59
2016-04-13T10:34:26.967Z,59
2016-04-13T10:35:25.126Z,59
2016-04-13T10:36:23.051Z,60
2016-04-13T10:37:21.335Z,60
2016-04-13T10:38:19.601Z,60
2016-04-13T10:39:17.901Z,60
2016-04-13T10:40:16.185Z,60
2016-04-13T10:41:14.422Z,60
2016-04-13T10:42:12.831Z,60
2016-04-13T10:43:13.834Z,60
2016-04-13T10:44:12.118Z,60
2016-04-13T10:45:10.698Z,60
2016-04-13T10:46:09.200Z,60
2016-04-13T10:47:07.735Z,61
2016-04-13T10:48:06.534Z,61
2016-04-13T10:49:05.444Z,61
2016-04-13T10:50:04.118Z,61
2016-04-13T10:51:02.933Z,61
2016-04-13T10:52:01.763Z,61
2016-04-13T10:53:02.782Z,61
2016-04-13T10:54:02.004Z,61
2016-04-13T10:55:03.663Z,61
2016-04-13T10:56:03.885Z,61
2016-04-13T10:57:00.152Z,61
2016-04-13T10:58:01.499Z,61
2016-04-13T11:01:59.814Z,61
2016-04-13T11:12:54.445Z,62
2016-04-13T11:20:48.478Z,62
2016-04-13T11:22:48.734Z,62
2016-04-13T11:23:48.316Z,62
2016-04-13T11:24:47.851Z,62
2016-04-13T11:26:47.466Z,62
2016-04-13T11:27:47.032Z,62
2016-04-13T11:28:46.582Z,62
2016-04-13T11:29:46.383Z,62
2016-04-13T11:30:46.183Z,62
2016-04-13T11:31:46.060Z,62
2016-04-13T11:32:47.077Z,62
2016-04-13T11:33:46.878Z,62
2016-04-13T11:34:46.693Z,62
2016-04-13T11:35:46.492Z,62
2016-04-13T11:36:46.308Z,62
2016-04-13T11:37:46.122Z,62
2016-04-13T11:38:46.047Z,62
2016-04-13T11:39:45.752Z,62
2016-04-13T11:40:45.662Z,62
2016-04-13T11:41:45.415Z,63
2016-04-13T11:42:46.432Z,63
2016-04-13T11:43:46.482Z,63
2016-04-13T11:44:46.548Z,63
2016-04-13T11:45:46.643Z,63
2016-04-13T11:46:46.788Z,63
2016-04-13T11:47:46.728Z,63
2016-04-13T11:48:46.793Z,63
2016-04-13T11:49:46.859Z,63
2016-04-13T11:50:46.907Z,63
2016-04-13T11:51:47.034Z,63
2016-04-13T11:52:48.209Z,63
2016-04-13T11:53:48.119Z,63
2016-04-13T11:54:48.168Z,63
2016-04-13T11:55:48.250Z,63
2016-04-13T11:56:48.564Z,63
2016-04-13T11:57:48.880Z,63
2016-04-13T11:58:49.194Z,63
2016-04-13T11:59:49.619Z,63
2016-04-13T12:00:49.841Z,63
2016-04-13T12:01:50.203Z,63
2016-04-13T12:02:51.205Z,63
2016-04-13T12:03:51.521Z,63
2016-04-13T12:04:51.852Z,63
2016-04-13T12:05:52.152Z,63
2016-04-13T12:06:52.482Z,63
2016-04-13T12:07:52.782Z,63
2016-04-13T12:08:53.113Z,63
2016-04-13T12:09:53.428Z,63
2016-04-13T12:10:53.744Z,63
2016-04-13T12:11:54.122Z,63
2016-04-13T12:12:55.186Z,64
2016-04-13T12:13:55.705Z,63
2016-04-13T12:14:56.052Z,63
2016-04-13T12:15:56.445Z,63
2016-04-13T12:16:56.650Z,63
2016-04-13T12:17:56.981Z,63
2016-04-13T12:18:57.280Z,63
2016-04-13T12:19:57.596Z,63
2016-04-13T12:20:58.052Z,63
2016-04-13T12:21:58.398Z,63
2016-04-13T12:22:59.276Z,63
2016-04-13T12:23:59.622Z,64
2016-04-13T12:25:00.187Z,64
2016-04-13T12:26:00.768Z,64
2016-04-13T12:27:01.334Z,64
2016-04-13T12:28:01.899Z,64
2016-04-13T12:29:02.479Z,64
2016-04-13T12:30:03.154Z,63
2016-04-13T12:31:03.345Z,63
2016-04-13T12:32:03.722Z,64
2016-04-13T12:33:04.741Z,63
2016-04-13T12:34:05.071Z,63
2016-04-13T12:35:05.387Z,64
2016-04-13T12:36:05.951Z,64
2016-04-13T12:37:06.516Z,64
2016-04-13T12:38:07.082Z,64
2016-04-13T12:39:07.694Z,64
2016-04-13T12:40:08.259Z,64
2016-04-13T12:41:08.809Z,64
2016-04-13T12:42:09.546Z,64
2016-04-13T12:43:10.455Z,64
2016-04-13T12:44:11.020Z,64
2016-04-13T12:45:11.600Z,64
2016-04-13T12:46:12.150Z,63
2016-04-13T12:47:12.481Z,64
2016-04-13T12:48:13.046Z,63
2016-04-13T12:49:13.361Z,63
2016-04-13T12:50:13.677Z,63
2016-04-13T12:51:13.992Z,63
2016-04-13T12:52:14.370Z,63
2016-04-13T12:53:15.513Z,63
2016-04-13T12:54:15.702Z,63
2016-04-13T12:55:16.143Z,63
2016-04-13T12:56:16.333Z,63
2016-04-13T12:57:16.665Z,63
2016-04-13T12:58:16.996Z,63
2016-04-13T12:59:17.295Z,63
2016-04-13T13:00:17.610Z,63
2016-04-13T13:01:17.925Z,64
2016-04-13T13:02:18.553Z,64
2016-04-13T13:03:19.571Z,64
2016-04-13T13:04:20.137Z,64
2016-04-13T13:05:20.702Z,64
2016-04-13T13:06:21.284Z,64
2016-04-13T13:07:21.850Z,64
2016-04-13T13:08:22.415Z,64
2016-04-13T13:10:23.561Z,64
2016-04-13T13:11:24.142Z,64
2016-04-13T13:12:24.878Z,64
2016-04-13T13:13:25.789Z,64
2016-04-13T13:14:26.353Z,64
2016-04-13T13:15:27.044Z,64
2016-04-13T13:16:27.500Z,64
2016-04-13T13:17:28.064Z,64
2016-04-13T13:18:28.880Z,64
2016-04-13T13:19:29.695Z,64
2016-04-13T13:20:30.525Z,64
2016-04-13T13:21:31.466Z,64
2016-04-13T13:22:32.235Z,64
2016-04-13T13:23:33.252Z,64
2016-04-13T13:24:34.193Z,64
2016-04-13T13:25:34.898Z,64
2016-04-13T13:26:35.729Z,64
2016-04-13T13:27:36.544Z,64
2016-04-13T13:28:37.376Z,64
2016-04-13T13:29:38.315Z,64
2016-04-13T13:30:39.021Z,64
2016-04-13T13:31:39.837Z,64
2016-04-13T13:32:40.715Z,64
2016-04-13T13:33:41.732Z,64
2016-04-13T13:34:42.548Z,64
2016-04-13T13:35:43.379Z,64
2016-04-13T13:36:44.194Z,64
2016-04-13T13:37:45.025Z,65
2016-04-13T13:38:46.106Z,65
2016-04-13T13:39:47.170Z,65
2016-04-13T13:40:48.251Z,65
2016-04-13T13:41:49.332Z,65
2016-04-13T13:42:50.459Z,65
2016-04-13T13:43:51.478Z,65
2016-04-13T13:44:52.558Z,65
2016-04-13T13:45:53.750Z,65
2016-04-13T13:46:54.720Z,65
2016-04-13T13:47:55.785Z,65
2016-04-13T13:48:56.866Z,65
2016-04-13T13:49:57.932Z,65
2016-04-13T13:50:59.013Z,65
2016-04-13T13:52:00.343Z,65
2016-04-13T13:53:01.752Z,65
2016-04-13T13:54:02.771Z,65
2016-04-13T13:55:04.102Z,65
2016-04-13T13:56:05.401Z,65
2016-04-13T13:57:06.857Z,65
2016-04-13T13:58:08.079Z,65
2016-04-13T13:59:09.394Z,65
2016-04-13T14:00:10.849Z,65
2016-04-13T14:01:12.055Z,65
2016-04-13T14:02:13.386Z,65
2016-04-13T14:03:14.779Z,65
2016-04-13T14:04:15.798Z,66
2016-04-13T14:05:17.503Z,66
2016-04-13T14:06:18.975Z,66
2016-04-13T14:07:20.556Z,65
2016-04-13T14:08:21.996Z,66
2016-04-13T14:09:23.467Z,66
2016-04-13T14:11:26.631Z,66
2016-04-13T14:12:28.229Z,66
2016-04-13T14:13:29.856Z,66
2016-04-13T14:14:30.874Z,66
2016-04-13T14:15:32.455Z,66
2016-04-13T14:16:34.050Z,66
2016-04-13T14:17:35.633Z,66
2016-04-13T14:18:37.213Z,66
2016-04-13T14:19:38.809Z,66
2016-04-13T14:20:40.500Z,66
2016-04-13T14:21:41.972Z,66
2016-04-13T14:22:43.552Z,66
2016-04-13T14:23:45.211Z,66
2016-04-13T14:24:46.213Z,66
2016-04-13T14:25:43.997Z,66
2016-04-13T14:26:41.766Z,66
2016-04-13T14:27:39.550Z,66
2016-04-13T14:28:37.458Z,66
2016-04-13T14:29:35.118Z,66
2016-04-13T14:30:33.010Z,66
2016-04-13T14:31:30.685Z,66
2016-04-13T14:32:28.469Z,66
2016-04-13T14:33:26.300Z,66
2016-04-13T14:34:27.318Z,67
2016-04-13T14:35:25.352Z,67
2016-04-13T14:36:23.384Z,67
2016-04-13T14:37:21.417Z,67
2016-04-13T14:38:19.623Z,67
2016-04-13T14:39:17.485Z,67
2016-04-13T14:40:15.535Z,67
2016-04-13T14:41:13.569Z,67
2016-04-13T14:42:11.604Z,67
2016-04-13T14:43:09.700Z,67
2016-04-13T14:44:10.843Z,67
2016-04-13T14:45:08.751Z,67
2016-04-13T14:46:06.786Z,67
2016-04-13T14:47:04.835Z,67
2016-04-13T14:48:02.853Z,67
2016-04-13T14:49:00.903Z,67